METAR Data
IDs: Format: Raw Decoded Include TAF

Data at: 1054 UTC 28 Jul 2021

KWHP 280255Z 11006KT 10SM SKC 27/14 A2999
KWHP 280155Z 12005KT 10SM SKC 29/09 A2998
KWHP 280055Z 12009KT 10SM SKC 30/09 A2998
KWHP 272350Z 10009KT 10SM SKC 33/08 A2998
KWHP 272250Z 11008KT 10SM SKC 33/09 A2999
KWHP 272150Z 10010G15KT 10SM SKC 33/09 A3000
KWHP 272055Z 13008KT 10SM SKC 31/14 A3002
KWHP 271955Z 12008KT 10SM SKC 30/15 A3002
KWHP 271855Z 11006KT 10SM SKC 28/17 A3003
KWHP 271750Z 11003KT 10SM SKC 27/16 A3003
KWHP 271650Z 12004KT 10SM HZ SKC 24/17 A3003
KWHP 271550Z 15004KT 7SM HZ SKC 22/16 A3004
KWHP 271450Z 00000KT 6SM HZ SKC 19/17 A3003
KWHP 270250Z 13006KT 10SM SKC 22/16 A2997
KWHP 270150Z 13007KT 10SM SKC 23/16 A2996
KWHP 270050Z 12006KT 10SM SKC 24/06 A2995
KWHP 262350Z 12008KT 10SM BKN060 24/17 A2997
KWHP 262255Z 11006KT 7SM HZ OVC060 24/17 A2996